sensor_id;sensor_type;location;lat;lon;timestamp;P1;durP1;ratioP1;P2;durP2;ratioP2
19043;SDS011;9654;52.302;8.120;2023-11-19T00:02:17;18.23;;;13.17;;
19043;SDS011;9654;52.302;8.120;2023-11-19T00:04:44;21.10;;;13.53;;
19043;SDS011;9654;52.302;8.120;2023-11-19T00:07:11;22.77;;;14.67;;
19043;SDS011;9654;52.302;8.120;2023-11-19T00:09:39;21.30;;;14.43;;
19043;SDS011;9654;52.302;8.120;2023-11-19T00:12:06;21.73;;;14.90;;
19043;SDS011;9654;52.302;8.120;2023-11-19T00:14:33;22.17;;;14.60;;
19043;SDS011;9654;52.302;8.120;2023-11-19T00:17:00;22.13;;;14.03;;
19043;SDS011;9654;52.302;8.120;2023-11-19T00:19:30;18.13;;;13.20;;
19043;SDS011;9654;52.302;8.120;2023-11-19T00:21:57;18.63;;;13.13;;
19043;SDS011;9654;52.302;8.120;2023-11-19T00:24:27;23.03;;;14.00;;
19043;SDS011;9654;52.302;8.120;2023-11-19T00:26:54;17.90;;;12.97;;
19043;SDS011;9654;52.302;8.120;2023-11-19T00:29:21;17.83;;;13.43;;
19043;SDS011;9654;52.302;8.120;2023-11-19T00:31:48;17.97;;;13.30;;
19043;SDS011;9654;52.302;8.120;2023-11-19T00:34:15;16.47;;;12.07;;
19043;SDS011;9654;52.302;8.120;2023-11-19T00:36:46;16.53;;;12.27;;
19043;SDS011;9654;52.302;8.120;2023-11-19T00:39:13;14.03;;;10.87;;
19043;SDS011;9654;52.302;8.120;2023-11-19T00:41:41;15.57;;;11.67;;
19043;SDS011;9654;52.302;8.120;2023-11-19T00:44:07;13.27;;;10.33;;
19043;SDS011;9654;52.302;8.120;2023-11-19T00:46:34;13.63;;;11.00;;
19043;SDS011;9654;52.302;8.120;2023-11-19T00:49:01;14.87;;;11.30;;
19043;SDS011;9654;52.302;8.120;2023-11-19T00:51:28;17.10;;;11.97;;
19043;SDS011;9654;52.302;8.120;2023-11-19T00:53:57;14.77;;;11.13;;
19043;SDS011;9654;52.302;8.120;2023-11-19T00:56:25;15.73;;;11.63;;
19043;SDS011;9654;52.302;8.120;2023-11-19T00:58:53;13.47;;;10.27;;
19043;SDS011;9654;52.302;8.120;2023-11-19T01:01:20;13.43;;;10.50;;
19043;SDS011;9654;52.302;8.120;2023-11-19T01:03:47;15.57;;;11.63;;
19043;SDS011;9654;52.302;8.120;2023-11-19T01:06:14;14.20;;;10.83;;
19043;SDS011;9654;52.302;8.120;2023-11-19T01:08:42;15.13;;;11.47;;
19043;SDS011;9654;52.302;8.120;2023-11-19T01:11:20;18.47;;;12.30;;
19043;SDS011;9654;52.302;8.120;2023-11-19T01:13:47;16.10;;;11.60;;
19043;SDS011;9654;52.302;8.120;2023-11-19T01:16:14;18.17;;;12.47;;
19043;SDS011;9654;52.302;8.120;2023-11-19T01:18:40;17.47;;;12.43;;
19043;SDS011;9654;52.302;8.120;2023-11-19T01:21:07;18.43;;;12.87;;
19043;SDS011;9654;52.302;8.120;2023-11-19T01:23:34;19.13;;;13.17;;
19043;SDS011;9654;52.302;8.120;2023-11-19T01:26:02;20.53;;;14.17;;
19043;SDS011;9654;52.302;8.120;2023-11-19T01:28:31;20.10;;;14.17;;
19043;SDS011;9654;52.302;8.120;2023-11-19T01:30:59;23.63;;;13.97;;
19043;SDS011;9654;52.302;8.120;2023-11-19T01:33:26;19.70;;;13.87;;
19043;SDS011;9654;52.302;8.120;2023-11-19T01:35:53;21.87;;;15.00;;
19043;SDS011;9654;52.302;8.120;2023-11-19T01:38:21;21.73;;;14.20;;
19043;SDS011;9654;52.302;8.120;2023-11-19T01:40:47;21.57;;;14.77;;
19043;SDS011;9654;52.302;8.120;2023-11-19T01:46:00;22.53;;;15.70;;
19043;SDS011;9654;52.302;8.120;2023-11-19T01:48:28;23.70;;;15.47;;
19043;SDS011;9654;52.302;8.120;2023-11-19T01:50:55;24.97;;;16.40;;
19043;SDS011;9654;52.302;8.120;2023-11-19T01:53:23;26.27;;;17.27;;
19043;SDS011;9654;52.302;8.120;2023-11-19T01:55:51;25.83;;;17.40;;
19043;SDS011;9654;52.302;8.120;2023-11-19T01:58:18;28.40;;;18.17;;
19043;SDS011;9654;52.302;8.120;2023-11-19T02:00:47;31.40;;;18.97;;
19043;SDS011;9654;52.302;8.120;2023-11-19T02:03:14;30.63;;;18.93;;
19043;SDS011;9654;52.302;8.120;2023-11-19T02:05:41;37.30;;;19.10;;
19043;SDS011;9654;52.302;8.120;2023-11-19T02:08:08;32.27;;;20.03;;
19043;SDS011;9654;52.302;8.120;2023-11-19T02:10:35;34.80;;;20.40;;
19043;SDS011;9654;52.302;8.120;2023-11-19T02:13:02;33.90;;;20.07;;
19043;SDS011;9654;52.302;8.120;2023-11-19T02:15:31;35.73;;;20.47;;
19043;SDS011;9654;52.302;8.120;2023-11-19T02:20:47;38.70;;;21.50;;
19043;SDS011;9654;52.302;8.120;2023-11-19T02:23:15;38.60;;;21.43;;
19043;SDS011;9654;52.302;8.120;2023-11-19T02:25:42;39.20;;;22.73;;
19043;SDS011;9654;52.302;8.120;2023-11-19T02:28:13;37.90;;;21.57;;
19043;SDS011;9654;52.302;8.120;2023-11-19T02:30:41;40.67;;;22.60;;
19043;SDS011;9654;52.302;8.120;2023-11-19T02:33:08;39.30;;;22.73;;
19043;SDS011;9654;52.302;8.120;2023-11-19T02:35:34;39.47;;;22.30;;
19043;SDS011;9654;52.302;8.120;2023-11-19T02:38:01;41.90;;;22.63;;
19043;SDS011;9654;52.302;8.120;2023-11-19T02:40:28;44.07;;;23.87;;
19043;SDS011;9654;52.302;8.120;2023-11-19T02:42:55;42.70;;;22.30;;
19043;SDS011;9654;52.302;8.120;2023-11-19T02:45:24;45.33;;;24.77;;
19043;SDS011;9654;52.302;8.120;2023-11-19T02:47:52;39.97;;;23.03;;
19043;SDS011;9654;52.302;8.120;2023-11-19T02:50:19;42.70;;;22.60;;
19043;SDS011;9654;52.302;8.120;2023-11-19T02:52:51;48.30;;;25.17;;
19043;SDS011;9654;52.302;8.120;2023-11-19T02:55:21;47.17;;;24.20;;
19043;SDS011;9654;52.302;8.120;2023-11-19T02:57:49;44.80;;;24.07;;
19043;SDS011;9654;52.302;8.120;2023-11-19T03:00:16;44.67;;;23.93;;
19043;SDS011;9654;52.302;8.120;2023-11-19T03:02:50;45.97;;;25.43;;
19043;SDS011;9654;52.302;8.120;2023-11-19T03:05:24;42.17;;;24.43;;
19043;SDS011;9654;52.302;8.120;2023-11-19T03:07:51;51.00;;;25.33;;
19043;SDS011;9654;52.302;8.120;2023-11-19T03:10:18;43.50;;;25.03;;
19043;SDS011;9654;52.302;8.120;2023-11-19T03:12:45;43.20;;;25.30;;
19043;SDS011;9654;52.302;8.120;2023-11-19T03:15:12;40.67;;;24.80;;
19043;SDS011;9654;52.302;8.120;2023-11-19T03:17:39;46.67;;;23.83;;
19043;SDS011;9654;52.302;8.120;2023-11-19T03:20:09;43.77;;;23.70;;
19043;SDS011;9654;52.302;8.120;2023-11-19T03:22:40;48.20;;;24.27;;
19043;SDS011;9654;52.302;8.120;2023-11-19T03:25:07;42.73;;;23.30;;
19043;SDS011;9654;52.302;8.120;2023-11-19T03:27:34;41.50;;;22.23;;
19043;SDS011;9654;52.302;8.120;2023-11-19T03:30:01;45.83;;;22.60;;
19043;SDS011;9654;52.302;8.120;2023-11-19T03:32:29;42.30;;;20.67;;
19043;SDS011;9654;52.302;8.120;2023-11-19T03:34:56;43.17;;;22.37;;
19043;SDS011;9654;52.302;8.120;2023-11-19T03:37:25;40.70;;;22.27;;
19043;SDS011;9654;52.302;8.120;2023-11-19T03:39:53;39.83;;;21.33;;
19043;SDS011;9654;52.302;8.120;2023-11-19T03:42:19;39.17;;;21.77;;
19043;SDS011;9654;52.302;8.120;2023-11-19T03:44:46;47.33;;;22.97;;
19043;SDS011;9654;52.302;8.120;2023-11-19T03:47:14;39.43;;;21.70;;
19043;SDS011;9654;52.302;8.120;2023-11-19T03:49:41;44.73;;;21.83;;
19043;SDS011;9654;52.302;8.120;2023-11-19T03:52:09;39.67;;;21.40;;
19043;SDS011;9654;52.302;8.120;2023-11-19T03:54:37;42.33;;;22.40;;
19043;SDS011;9654;52.302;8.120;2023-11-19T03:57:04;40.37;;;21.63;;
19043;SDS011;9654;52.302;8.120;2023-11-19T03:59:31;44.10;;;20.50;;
19043;SDS011;9654;52.302;8.120;2023-11-19T04:01:58;44.90;;;21.30;;
19043;SDS011;9654;52.302;8.120;2023-11-19T04:04:25;39.53;;;21.03;;
19043;SDS011;9654;52.302;8.120;2023-11-19T04:06:52;39.60;;;19.53;;
19043;SDS011;9654;52.302;8.120;2023-11-19T04:09:19;46.13;;;21.53;;
19043;SDS011;9654;52.302;8.120;2023-11-19T04:11:47;38.50;;;20.00;;
19043;SDS011;9654;52.302;8.120;2023-11-19T04:14:14;40.93;;;20.23;;
19043;SDS011;9654;52.302;8.120;2023-11-19T04:16:43;34.17;;;19.20;;
19043;SDS011;9654;52.302;8.120;2023-11-19T04:19:10;37.93;;;19.07;;
19043;SDS011;9654;52.302;8.120;2023-11-19T04:21:36;38.50;;;18.20;;
19043;SDS011;9654;52.302;8.120;2023-11-19T04:24:06;38.53;;;19.07;;
19043;SDS011;9654;52.302;8.120;2023-11-19T04:26:33;35.33;;;18.27;;
19043;SDS011;9654;52.302;8.120;2023-11-19T04:29:01;39.20;;;18.70;;
19043;SDS011;9654;52.302;8.120;2023-11-19T04:31:28;37.93;;;17.87;;
19043;SDS011;9654;52.302;8.120;2023-11-19T04:33:56;41.77;;;17.47;;
19043;SDS011;9654;52.302;8.120;2023-11-19T04:36:25;40.13;;;16.27;;
19043;SDS011;9654;52.302;8.120;2023-11-19T04:38:52;41.47;;;16.53;;
19043;SDS011;9654;52.302;8.120;2023-11-19T04:41:19;29.40;;;15.17;;
19043;SDS011;9654;52.302;8.120;2023-11-19T04:43:45;35.17;;;14.73;;
19043;SDS011;9654;52.302;8.120;2023-11-19T04:46:14;41.37;;;14.10;;
19043;SDS011;9654;52.302;8.120;2023-11-19T04:48:41;33.37;;;14.37;;
19043;SDS011;9654;52.302;8.120;2023-11-19T04:51:07;30.20;;;13.90;;
19043;SDS011;9654;52.302;8.120;2023-11-19T04:53:35;31.60;;;12.90;;
19043;SDS011;9654;52.302;8.120;2023-11-19T04:56:07;35.97;;;13.53;;
19043;SDS011;9654;52.302;8.120;2023-11-19T04:58:34;29.40;;;12.57;;
19043;SDS011;9654;52.302;8.120;2023-11-19T05:01:02;34.83;;;12.30;;
19043;SDS011;9654;52.302;8.120;2023-11-19T05:03:30;35.40;;;11.23;;
19043;SDS011;9654;52.302;8.120;2023-11-19T05:05:57;38.80;;;10.10;;
19043;SDS011;9654;52.302;8.120;2023-11-19T05:08:24;30.37;;;9.80;;
19043;SDS011;9654;52.302;8.120;2023-11-19T05:10:51;30.23;;;8.60;;
19043;SDS011;9654;52.302;8.120;2023-11-19T05:13:17;31.00;;;9.40;;
19043;SDS011;9654;52.302;8.120;2023-11-19T05:15:44;31.17;;;8.50;;
19043;SDS011;9654;52.302;8.120;2023-11-19T05:18:11;27.60;;;7.53;;
19043;SDS011;9654;52.302;8.120;2023-11-19T05:20:39;33.73;;;7.50;;
19043;SDS011;9654;52.302;8.120;2023-11-19T05:23:06;29.83;;;7.33;;
19043;SDS011;9654;52.302;8.120;2023-11-19T05:25:33;38.20;;;7.60;;
19043;SDS011;9654;52.302;8.120;2023-11-19T05:28:00;30.10;;;6.07;;
19043;SDS011;9654;52.302;8.120;2023-11-19T05:30:36;37.03;;;7.83;;
19043;SDS011;9654;52.302;8.120;2023-11-19T05:33:02;33.43;;;7.00;;
19043;SDS011;9654;52.302;8.120;2023-11-19T05:35:29;33.60;;;7.00;;
19043;SDS011;9654;52.302;8.120;2023-11-19T05:37:57;30.90;;;6.90;;
19043;SDS011;9654;52.302;8.120;2023-11-19T05:40:24;31.93;;;6.30;;
19043;SDS011;9654;52.302;8.120;2023-11-19T05:42:51;23.43;;;6.03;;
19043;SDS011;9654;52.302;8.120;2023-11-19T05:45:17;28.10;;;6.33;;
19043;SDS011;9654;52.302;8.120;2023-11-19T05:47:44;29.43;;;6.43;;
19043;SDS011;9654;52.302;8.120;2023-11-19T05:50:11;28.30;;;6.57;;
19043;SDS011;9654;52.302;8.120;2023-11-19T05:52:38;35.77;;;6.03;;
19043;SDS011;9654;52.302;8.120;2023-11-19T05:55:06;33.77;;;6.57;;
19043;SDS011;9654;52.302;8.120;2023-11-19T05:57:35;29.77;;;6.10;;
19043;SDS011;9654;52.302;8.120;2023-11-19T06:00:02;30.53;;;6.03;;
19043;SDS011;9654;52.302;8.120;2023-11-19T06:02:32;35.57;;;6.50;;
19043;SDS011;9654;52.302;8.120;2023-11-19T06:04:59;29.93;;;6.33;;
19043;SDS011;9654;52.302;8.120;2023-11-19T06:07:26;29.30;;;6.77;;
19043;SDS011;9654;52.302;8.120;2023-11-19T06:09:53;32.10;;;5.70;;
19043;SDS011;9654;52.302;8.120;2023-11-19T06:12:21;27.37;;;5.93;;
19043;SDS011;9654;52.302;8.120;2023-11-19T06:14:48;29.33;;;6.77;;
19043;SDS011;9654;52.302;8.120;2023-11-19T06:17:15;28.93;;;5.90;;
19043;SDS011;9654;52.302;8.120;2023-11-19T06:19:41;35.80;;;6.27;;
19043;SDS011;9654;52.302;8.120;2023-11-19T06:22:10;38.63;;;6.00;;
19043;SDS011;9654;52.302;8.120;2023-11-19T06:24:37;29.93;;;5.83;;
19043;SDS011;9654;52.302;8.120;2023-11-19T06:27:03;33.27;;;7.37;;
19043;SDS011;9654;52.302;8.120;2023-11-19T06:29:31;33.20;;;6.10;;
19043;SDS011;9654;52.302;8.120;2023-11-19T06:31:58;26.20;;;6.50;;
19043;SDS011;9654;52.302;8.120;2023-11-19T06:34:25;36.50;;;6.37;;
19043;SDS011;9654;52.302;8.120;2023-11-19T06:36:52;39.10;;;6.30;;
19043;SDS011;9654;52.302;8.120;2023-11-19T06:39:18;20.67;;;5.73;;
19043;SDS011;9654;52.302;8.120;2023-11-19T06:41:46;26.57;;;6.17;;
19043;SDS011;9654;52.302;8.120;2023-11-19T06:44:13;33.60;;;6.00;;
19043;SDS011;9654;52.302;8.120;2023-11-19T06:46:41;29.40;;;5.90;;
19043;SDS011;9654;52.302;8.120;2023-11-19T06:49:08;37.07;;;6.70;;
19043;SDS011;9654;52.302;8.120;2023-11-19T06:51:34;27.00;;;5.30;;
19043;SDS011;9654;52.302;8.120;2023-11-19T06:54:01;39.23;;;6.43;;
19043;SDS011;9654;52.302;8.120;2023-11-19T06:56:28;37.97;;;7.13;;
19043;SDS011;9654;52.302;8.120;2023-11-19T06:58:55;37.00;;;5.20;;
19043;SDS011;9654;52.302;8.120;2023-11-19T07:01:21;35.20;;;7.37;;
19043;SDS011;9654;52.302;8.120;2023-11-19T07:03:50;27.97;;;7.03;;
19043;SDS011;9654;52.302;8.120;2023-11-19T07:06:17;31.00;;;7.10;;
19043;SDS011;9654;52.302;8.120;2023-11-19T07:08:44;32.07;;;5.77;;
19043;SDS011;9654;52.302;8.120;2023-11-19T07:11:11;34.10;;;7.00;;
19043;SDS011;9654;52.302;8.120;2023-11-19T07:13:39;33.53;;;5.47;;
19043;SDS011;9654;52.302;8.120;2023-11-19T07:16:07;28.87;;;6.27;;
19043;SDS011;9654;52.302;8.120;2023-11-19T07:18:35;39.93;;;5.93;;
19043;SDS011;9654;52.302;8.120;2023-11-19T07:21:05;38.57;;;5.53;;
19043;SDS011;9654;52.302;8.120;2023-11-19T07:23:35;41.27;;;6.97;;
19043;SDS011;9654;52.302;8.120;2023-11-19T07:26:04;31.00;;;5.53;;
19043;SDS011;9654;52.302;8.120;2023-11-19T07:28:33;32.50;;;6.30;;
19043;SDS011;9654;52.302;8.120;2023-11-19T07:31:00;33.33;;;6.03;;
19043;SDS011;9654;52.302;8.120;2023-11-19T07:33:27;32.73;;;5.57;;
19043;SDS011;9654;52.302;8.120;2023-11-19T07:35:54;35.73;;;6.70;;
19043;SDS011;9654;52.302;8.120;2023-11-19T07:38:22;41.27;;;6.47;;
19043;SDS011;9654;52.302;8.120;2023-11-19T07:40:49;42.47;;;7.03;;
19043;SDS011;9654;52.302;8.120;2023-11-19T07:43:16;37.80;;;7.93;;
19043;SDS011;9654;52.302;8.120;2023-11-19T07:45:43;35.57;;;6.03;;
19043;SDS011;9654;52.302;8.120;2023-11-19T07:48:10;41.03;;;7.97;;
19043;SDS011;9654;52.302;8.120;2023-11-19T07:50:38;40.87;;;7.10;;
19043;SDS011;9654;52.302;8.120;2023-11-19T07:53:05;34.30;;;6.37;;
19043;SDS011;9654;52.302;8.120;2023-11-19T07:55:34;34.83;;;6.70;;
19043;SDS011;9654;52.302;8.120;2023-11-19T07:58:00;37.63;;;7.10;;
19043;SDS011;9654;52.302;8.120;2023-11-19T08:00:27;32.47;;;5.77;;
19043;SDS011;9654;52.302;8.120;2023-11-19T08:02:54;41.93;;;6.57;;
19043;SDS011;9654;52.302;8.120;2023-11-19T08:05:21;36.17;;;7.60;;
19043;SDS011;9654;52.302;8.120;2023-11-19T08:07:49;39.80;;;6.60;;
19043;SDS011;9654;52.302;8.120;2023-11-19T08:10:17;29.60;;;5.93;;
19043;SDS011;9654;52.302;8.120;2023-11-19T08:12:45;47.20;;;7.73;;
19043;SDS011;9654;52.302;8.120;2023-11-19T08:15:12;47.37;;;7.30;;
19043;SDS011;9654;52.302;8.120;2023-11-19T08:17:38;30.77;;;6.17;;
19043;SDS011;9654;52.302;8.120;2023-11-19T08:20:06;27.03;;;5.47;;
19043;SDS011;9654;52.302;8.120;2023-11-19T08:22:35;38.77;;;6.83;;
19043;SDS011;9654;52.302;8.120;2023-11-19T08:25:02;51.40;;;7.93;;
19043;SDS011;9654;52.302;8.120;2023-11-19T08:27:29;33.70;;;5.97;;
19043;SDS011;9654;52.302;8.120;2023-11-19T08:29:57;39.60;;;6.70;;
19043;SDS011;9654;52.302;8.120;2023-11-19T08:32:25;39.27;;;6.23;;
19043;SDS011;9654;52.302;8.120;2023-11-19T08:34:52;41.43;;;7.57;;
19043;SDS011;9654;52.302;8.120;2023-11-19T08:37:19;37.03;;;6.47;;
19043;SDS011;9654;52.302;8.120;2023-11-19T08:39:47;34.97;;;6.53;;
19043;SDS011;9654;52.302;8.120;2023-11-19T08:42:14;39.67;;;7.37;;
19043;SDS011;9654;52.302;8.120;2023-11-19T08:44:41;38.07;;;6.60;;
19043;SDS011;9654;52.302;8.120;2023-11-19T08:47:10;45.77;;;7.07;;
19043;SDS011;9654;52.302;8.120;2023-11-19T08:49:38;38.27;;;6.33;;
19043;SDS011;9654;52.302;8.120;2023-11-19T08:52:05;35.13;;;7.00;;
19043;SDS011;9654;52.302;8.120;2023-11-19T08:54:32;35.67;;;6.20;;
19043;SDS011;9654;52.302;8.120;2023-11-19T08:56:59;31.13;;;6.53;;
19043;SDS011;9654;52.302;8.120;2023-11-19T08:59:27;44.90;;;7.37;;
19043;SDS011;9654;52.302;8.120;2023-11-19T09:01:54;36.57;;;6.47;;
19043;SDS011;9654;52.302;8.120;2023-11-19T09:04:23;32.77;;;6.13;;
19043;SDS011;9654;52.302;8.120;2023-11-19T09:06:50;27.13;;;5.30;;
19043;SDS011;9654;52.302;8.120;2023-11-19T09:09:16;29.67;;;5.43;;
19043;SDS011;9654;52.302;8.120;2023-11-19T09:11:43;41.50;;;6.20;;
19043;SDS011;9654;52.302;8.120;2023-11-19T09:14:10;45.00;;;8.73;;
19043;SDS011;9654;52.302;8.120;2023-11-19T09:16:37;41.30;;;7.57;;
19043;SDS011;9654;52.302;8.120;2023-11-19T09:19:04;44.40;;;6.73;;
19043;SDS011;9654;52.302;8.120;2023-11-19T09:21:32;38.07;;;6.60;;
19043;SDS011;9654;52.302;8.120;2023-11-19T09:23:59;38.13;;;6.67;;
19043;SDS011;9654;52.302;8.120;2023-11-19T09:26:26;53.70;;;7.67;;
19043;SDS011;9654;52.302;8.120;2023-11-19T09:28:53;48.97;;;8.33;;
19043;SDS011;9654;52.302;8.120;2023-11-19T09:31:19;38.27;;;6.47;;
19043;SDS011;9654;52.302;8.120;2023-11-19T09:33:46;41.40;;;7.53;;
19043;SDS011;9654;52.302;8.120;2023-11-19T09:36:13;43.27;;;6.80;;
19043;SDS011;9654;52.302;8.120;2023-11-19T09:38:43;46.80;;;8.90;;
19043;SDS011;9654;52.302;8.120;2023-11-19T09:41:09;34.63;;;6.63;;
19043;SDS011;9654;52.302;8.120;2023-11-19T09:43:38;39.27;;;7.37;;
19043;SDS011;9654;52.302;8.120;2023-11-19T09:46:06;44.40;;;6.80;;
19043;SDS011;9654;52.302;8.120;2023-11-19T09:48:37;47.63;;;8.33;;
19043;SDS011;9654;52.302;8.120;2023-11-19T09:51:05;37.67;;;7.73;;
19043;SDS011;9654;52.302;8.120;2023-11-19T09:53:33;31.97;;;7.43;;
19043;SDS011;9654;52.302;8.120;2023-11-19T09:56:02;39.67;;;5.97;;
19043;SDS011;9654;52.302;8.120;2023-11-19T09:58:30;39.43;;;7.03;;
19043;SDS011;9654;52.302;8.120;2023-11-19T10:00:59;46.23;;;6.83;;
19043;SDS011;9654;52.302;8.120;2023-11-19T10:03:28;45.77;;;7.13;;
19043;SDS011;9654;52.302;8.120;2023-11-19T10:05:59;50.13;;;6.93;;
19043;SDS011;9654;52.302;8.120;2023-11-19T10:08:27;38.87;;;6.93;;
19043;SDS011;9654;52.302;8.120;2023-11-19T10:10:54;46.93;;;7.30;;
19043;SDS011;9654;52.302;8.120;2023-11-19T10:13:25;42.07;;;6.50;;
19043;SDS011;9654;52.302;8.120;2023-11-19T10:15:52;47.10;;;7.17;;
19043;SDS011;9654;52.302;8.120;2023-11-19T10:18:23;39.27;;;7.20;;
19043;SDS011;9654;52.302;8.120;2023-11-19T10:20:51;46.13;;;8.03;;
19043;SDS011;9654;52.302;8.120;2023-11-19T10:23:18;46.60;;;7.47;;
19043;SDS011;9654;52.302;8.120;2023-11-19T10:25:45;43.07;;;6.87;;
19043;SDS011;9654;52.302;8.120;2023-11-19T10:28:12;44.93;;;6.83;;
19043;SDS011;9654;52.302;8.120;2023-11-19T10:30:43;39.63;;;7.17;;
19043;SDS011;9654;52.302;8.120;2023-11-19T10:33:09;35.90;;;6.03;;
19043;SDS011;9654;52.302;8.120;2023-11-19T10:38:26;38.50;;;6.57;;
19043;SDS011;9654;52.302;8.120;2023-11-19T10:40:54;37.13;;;7.47;;
19043;SDS011;9654;52.302;8.120;2023-11-19T10:43:22;45.13;;;7.80;;
19043;SDS011;9654;52.302;8.120;2023-11-19T10:45:51;35.73;;;5.77;;
19043;SDS011;9654;52.302;8.120;2023-11-19T10:48:18;38.70;;;7.07;;
19043;SDS011;9654;52.302;8.120;2023-11-19T10:50:46;49.33;;;7.53;;
19043;SDS011;9654;52.302;8.120;2023-11-19T10:53:19;41.77;;;6.90;;
19043;SDS011;9654;52.302;8.120;2023-11-19T10:55:51;42.73;;;7.13;;
19043;SDS011;9654;52.302;8.120;2023-11-19T10:58:19;48.33;;;7.47;;
19043;SDS011;9654;52.302;8.120;2023-11-19T11:00:47;32.83;;;6.27;;
19043;SDS011;9654;52.302;8.120;2023-11-19T11:03:18;54.77;;;8.57;;
19043;SDS011;9654;52.302;8.120;2023-11-19T11:05:46;37.87;;;6.83;;
19043;SDS011;9654;52.302;8.120;2023-11-19T11:08:14;45.30;;;8.07;;
19043;SDS011;9654;52.302;8.120;2023-11-19T11:10:42;54.80;;;8.60;;
19043;SDS011;9654;52.302;8.120;2023-11-19T11:13:10;56.50;;;7.67;;
19043;SDS011;9654;52.302;8.120;2023-11-19T11:15:39;36.33;;;7.63;;
19043;SDS011;9654;52.302;8.120;2023-11-19T11:18:08;46.20;;;8.33;;
19043;SDS011;9654;52.302;8.120;2023-11-19T11:20:36;40.00;;;7.30;;
19043;SDS011;9654;52.302;8.120;2023-11-19T11:26:12;37.40;;;7.03;;
19043;SDS011;9654;52.302;8.120;2023-11-19T11:28:52;43.87;;;7.20;;
19043;SDS011;9654;52.302;8.120;2023-11-19T11:31:29;42.83;;;8.00;;
19043;SDS011;9654;52.302;8.120;2023-11-19T11:34:19;47.47;;;8.93;;
19043;SDS011;9654;52.302;8.120;2023-11-19T11:37:06;47.00;;;10.37;;
19043;SDS011;9654;52.302;8.120;2023-11-19T11:39:39;36.90;;;7.37;;
19043;SDS011;9654;52.302;8.120;2023-11-19T11:45:02;43.23;;;8.20;;
19043;SDS011;9654;52.302;8.120;2023-11-19T11:50:47;45.80;;;7.73;;
19043;SDS011;9654;52.302;8.120;2023-11-19T11:53:21;41.97;;;8.00;;
19043;SDS011;9654;52.302;8.120;2023-11-19T11:55:52;45.60;;;8.37;;
19043;SDS011;9654;52.302;8.120;2023-11-19T11:58:20;47.43;;;7.93;;
19043;SDS011;9654;52.302;8.120;2023-11-19T12:00:48;37.67;;;7.40;;
19043;SDS011;9654;52.302;8.120;2023-11-19T12:03:16;35.33;;;6.67;;
19043;SDS011;9654;52.302;8.120;2023-11-19T12:05:47;37.43;;;7.40;;
19043;SDS011;9654;52.302;8.120;2023-11-19T12:08:14;38.23;;;6.13;;
19043;SDS011;9654;52.302;8.120;2023-11-19T12:10:46;40.57;;;8.20;;
19043;SDS011;9654;52.302;8.120;2023-11-19T12:13:15;31.97;;;6.60;;
19043;SDS011;9654;52.302;8.120;2023-11-19T12:18:35;39.30;;;7.77;;
19043;SDS011;9654;52.302;8.120;2023-11-19T12:21:05;43.93;;;8.07;;
19043;SDS011;9654;52.302;8.120;2023-11-19T12:23:34;37.47;;;7.23;;
19043;SDS011;9654;52.302;8.120;2023-11-19T12:26:14;39.40;;;7.77;;
19043;SDS011;9654;52.302;8.120;2023-11-19T12:28:59;35.63;;;5.70;;
19043;SDS011;9654;52.302;8.120;2023-11-19T12:31:28;31.10;;;7.40;;
19043;SDS011;9654;52.302;8.120;2023-11-19T12:33:55;36.67;;;6.47;;
19043;SDS011;9654;52.302;8.120;2023-11-19T12:36:22;42.17;;;7.47;;
19043;SDS011;9654;52.302;8.120;2023-11-19T12:38:49;41.80;;;7.53;;
19043;SDS011;9654;52.302;8.120;2023-11-19T12:41:17;46.03;;;8.83;;
19043;SDS011;9654;52.302;8.120;2023-11-19T12:43:47;38.20;;;7.73;;
19043;SDS011;9654;52.302;8.120;2023-11-19T12:46:17;33.67;;;5.73;;
19043;SDS011;9654;52.302;8.120;2023-11-19T12:48:45;34.40;;;5.57;;
19043;SDS011;9654;52.302;8.120;2023-11-19T12:51:12;38.20;;;7.67;;
19043;SDS011;9654;52.302;8.120;2023-11-19T12:53:47;49.40;;;7.73;;
19043;SDS011;9654;52.302;8.120;2023-11-19T12:56:15;44.83;;;7.20;;
19043;SDS011;9654;52.302;8.120;2023-11-19T12:58:55;38.60;;;6.73;;
19043;SDS011;9654;52.302;8.120;2023-11-19T13:01:22;37.40;;;6.00;;
19043;SDS011;9654;52.302;8.120;2023-11-19T13:03:49;47.17;;;8.30;;
19043;SDS011;9654;52.302;8.120;2023-11-19T13:06:16;33.80;;;7.13;;
19043;SDS011;9654;52.302;8.120;2023-11-19T13:08:46;38.03;;;7.67;;
19043;SDS011;9654;52.302;8.120;2023-11-19T13:11:15;32.83;;;6.30;;
19043;SDS011;9654;52.302;8.120;2023-11-19T13:13:57;26.73;;;6.50;;
19043;SDS011;9654;52.302;8.120;2023-11-19T13:16:25;28.07;;;6.00;;
19043;SDS011;9654;52.302;8.120;2023-11-19T13:18:53;34.80;;;6.47;;
19043;SDS011;9654;52.302;8.120;2023-11-19T13:21:20;30.70;;;6.37;;
19043;SDS011;9654;52.302;8.120;2023-11-19T13:23:46;36.73;;;6.40;;
19043;SDS011;9654;52.302;8.120;2023-11-19T13:26:13;38.80;;;6.13;;
19043;SDS011;9654;52.302;8.120;2023-11-19T13:28:40;28.90;;;6.20;;
19043;SDS011;9654;52.302;8.120;2023-11-19T13:31:08;33.80;;;5.87;;
19043;SDS011;9654;52.302;8.120;2023-11-19T13:33:35;29.00;;;5.97;;
19043;SDS011;9654;52.302;8.120;2023-11-19T13:36:02;47.83;;;7.13;;
19043;SDS011;9654;52.302;8.120;2023-11-19T13:38:31;29.53;;;6.13;;
19043;SDS011;9654;52.302;8.120;2023-11-19T13:40:58;34.13;;;6.47;;
19043;SDS011;9654;52.302;8.120;2023-11-19T13:43:25;32.17;;;5.83;;
19043;SDS011;9654;52.302;8.120;2023-11-19T13:45:53;34.87;;;6.27;;
19043;SDS011;9654;52.302;8.120;2023-11-19T13:48:24;33.40;;;5.97;;
19043;SDS011;9654;52.302;8.120;2023-11-19T13:50:52;29.70;;;5.37;;
19043;SDS011;9654;52.302;8.120;2023-11-19T13:53:19;30.00;;;5.83;;
19043;SDS011;9654;52.302;8.120;2023-11-19T13:55:46;26.73;;;5.03;;
19043;SDS011;9654;52.302;8.120;2023-11-19T13:58:13;24.27;;;5.77;;
19043;SDS011;9654;52.302;8.120;2023-11-19T14:00:41;27.17;;;6.20;;
19043;SDS011;9654;52.302;8.120;2023-11-19T14:03:08;30.57;;;6.57;;
19043;SDS011;9654;52.302;8.120;2023-11-19T14:05:37;32.17;;;6.10;;
19043;SDS011;9654;52.302;8.120;2023-11-19T14:08:04;32.00;;;6.67;;
19043;SDS011;9654;52.302;8.120;2023-11-19T14:10:36;30.13;;;6.33;;
19043;SDS011;9654;52.302;8.120;2023-11-19T14:13:04;43.00;;;7.57;;
19043;SDS011;9654;52.302;8.120;2023-11-19T14:15:31;25.80;;;5.97;;
19043;SDS011;9654;52.302;8.120;2023-11-19T14:17:58;31.10;;;6.70;;
19043;SDS011;9654;52.302;8.120;2023-11-19T14:20:24;33.17;;;7.37;;
19043;SDS011;9654;52.302;8.120;2023-11-19T14:22:53;32.37;;;6.43;;
19043;SDS011;9654;52.302;8.120;2023-11-19T14:25:19;24.97;;;5.67;;
19043;SDS011;9654;52.302;8.120;2023-11-19T14:27:48;25.03;;;5.57;;
19043;SDS011;9654;52.302;8.120;2023-11-19T14:30:15;30.57;;;7.03;;
19043;SDS011;9654;52.302;8.120;2023-11-19T14:32:42;30.13;;;5.97;;
19043;SDS011;9654;52.302;8.120;2023-11-19T14:35:10;26.70;;;5.57;;
19043;SDS011;9654;52.302;8.120;2023-11-19T14:37:37;31.03;;;5.77;;
19043;SDS011;9654;52.302;8.120;2023-11-19T14:40:06;20.03;;;4.27;;
19043;SDS011;9654;52.302;8.120;2023-11-19T14:42:36;24.17;;;5.37;;
19043;SDS011;9654;52.302;8.120;2023-11-19T14:45:04;24.70;;;4.70;;
19043;SDS011;9654;52.302;8.120;2023-11-19T14:47:32;25.30;;;5.10;;
19043;SDS011;9654;52.302;8.120;2023-11-19T14:49:58;48.83;;;6.90;;
19043;SDS011;9654;52.302;8.120;2023-11-19T14:52:25;30.37;;;5.30;;
19043;SDS011;9654;52.302;8.120;2023-11-19T14:54:52;40.07;;;5.73;;
19043;SDS011;9654;52.302;8.120;2023-11-19T14:57:22;25.70;;;4.63;;
19043;SDS011;9654;52.302;8.120;2023-11-19T14:59:49;51.97;;;7.53;;
19043;SDS011;9654;52.302;8.120;2023-11-19T15:02:16;28.13;;;4.90;;
19043;SDS011;9654;52.302;8.120;2023-11-19T15:04:44;24.20;;;6.03;;
19043;SDS011;9654;52.302;8.120;2023-11-19T15:07:10;23.83;;;4.90;;
19043;SDS011;9654;52.302;8.120;2023-11-19T15:09:37;24.47;;;5.67;;